Weather at Chau Duc Airport [CLOSED]

Public forecast

Using degrees Celsius for public forecast. Weather courtesy of forecast.io.

Closest aviation weather report (METAR) to Chau Duc Airport

Closest report is Tan Son Nhat International Airport, 34.9 nm (64.7 km) WNW.

2024/07/24 02:00 (retrieved 39 minutes ago)

VVTS 240200Z 25011KT 9999 SCT018 30/26 Q1007 NOSIG

Closest aviation forecast (TAF) to Chau Duc Airport

Forecast is more than 12 hours old.

Closest forecast is Car Nicobar Air Force Base, 854.0 nm (1,581.6 km) W.

2024/07/23 12:00 (retrieved 15 hours ago)

TAF VOCX 230930Z 2312/2324 22010KT 6000 SCT015 BKN090 TEMPO 1215/1217 24010G20KT 5000 RA SCT015 FEW025TCU BKN090